Inversion Research: Above Escarpment

*Note: All times are displayed in the local standard time of the station location.
**Rain - Equipment is designed to accurately record liquid precipitation; under conditions when precipitation is not in liquid form, the data displayed may not properly reflect rainfall values.

Date Max Temp
(°C)
Min Temp
(°C)
Avg Temp
(°C)
Rain (mm) Avg RH (%)
Mon, Apr 23, 2018 15.1 3.4 8.7 - 54.9
Sun, Apr 22, 2018 15.7 -2.8 7.9 - 53.3
Sat, Apr 21, 2018 13.8 -3.4 5.1 - 66.1
Fri, Apr 20, 2018 8.4 -1.0 2.9 - 67.4
Thu, Apr 19, 2018 4.0 0.4 1.9 - 75.7
Wed, Apr 18, 2018 3.3 0.5 1.7 - 88.0
Tue, Apr 17, 2018 1.3 -1.3 0.3 - 85.2
DateTime Avg Temp (°C) Rain (mm) RH (%)
Tue, Apr 24, 2018 18:00 12.5 - 89.0
Tue, Apr 24, 2018 17:00 13.8 - 74.0
Tue, Apr 24, 2018 16:00 15.5 - 58.5
Tue, Apr 24, 2018 15:00 16.6 - 51.8
Tue, Apr 24, 2018 14:00 17.2 - 50.0
Tue, Apr 24, 2018 13:00 16.6 - 50.8
Tue, Apr 24, 2018 12:00 15.5 - 53.0
Tue, Apr 24, 2018 11:00 13.7 - 66.0
Tue, Apr 24, 2018 10:00 13.1 - 71.8
Tue, Apr 24, 2018 09:00 13.1 - 69.8
Tue, Apr 24, 2018 08:00 13.1 - 65.8
Tue, Apr 24, 2018 07:00 12.0 - 69.8
Tue, Apr 24, 2018 06:00 11.6 - 70.5
Tue, Apr 24, 2018 05:00 11.7 - 68.8
Tue, Apr 24, 2018 04:00 11.4 - 66.5
Tue, Apr 24, 2018 03:00 10.9 - 66.0
Tue, Apr 24, 2018 02:00 8.0 - 73.5
Tue, Apr 24, 2018 01:00 4.8 - 87.8
Tue, Apr 24, 2018 00:00 4.8 - 85.0
Mon, Apr 23, 2018 23:00 4.9 - 81.3
Mon, Apr 23, 2018 22:00 5.4 - 76.8
Mon, Apr 23, 2018 21:00 5.9 - 74.5
Mon, Apr 23, 2018 20:00 7.5 - 67.5
Mon, Apr 23, 2018 19:00 9.4 - 59.0
Mon, Apr 23, 2018 18:00 11.3 - 52.0
Mon, Apr 23, 2018 17:00 12.6 - 50.3
Mon, Apr 23, 2018 16:00 13.8 - 49.5
Mon, Apr 23, 2018 15:00 14.3 - 47.3
Mon, Apr 23, 2018 14:00 12.8 - 49.3
Mon, Apr 23, 2018 13:00 12.7 - 49.0
Mon, Apr 23, 2018 12:00 12.3 - 52.0
Mon, Apr 23, 2018 11:00 13.2 - 49.8
Mon, Apr 23, 2018 10:00 11.0 - 48.3
Mon, Apr 23, 2018 09:00 8.5 - 50.8
Mon, Apr 23, 2018 08:00 7.0 - 49.8
Mon, Apr 23, 2018 07:00 3.6 - 55.3
Mon, Apr 23, 2018 06:00 4.2 - 51.8
Mon, Apr 23, 2018 05:00 5.8 - 45.8
Mon, Apr 23, 2018 04:00 6.0 - 47.3
Mon, Apr 23, 2018 03:00 7.0 - 43.0
Mon, Apr 23, 2018 02:00 7.5 - 41.8
Mon, Apr 23, 2018 01:00 7.9 - 40.3
Mon, Apr 23, 2018 00:00 9.1 - 37.5
Sun, Apr 22, 2018 23:00 10.4 - 34.0
Sun, Apr 22, 2018 22:00 11.1 - 30.5
Sun, Apr 22, 2018 21:00 11.9 - 29.8
Sun, Apr 22, 2018 20:00 14.1 - 27.8
Sun, Apr 22, 2018 19:00 15.5 - 24.0


asterix Register now to access more data! asterix